• Join FlightAware (Why Join?)
  • Login
  • US Flag 
01:15PM EDT


 

Airport Tracker/Info


-or-


 

Live Flight TrackerFlight Track Log ✈ SWA1377 ✈ 23-Apr-2013 ✈ KMDW - KBUF

Flight Track Log - Related Links

Times and Time Zones

All times are in EDT time to prevent confusion due to time zone crossing. See the SWA1377 flight status page for this flight to view local times or setup timezone preferences in your user account.

Time Position Orientation Groundspeed Altitude Reporting Facility
EDT Latitude Longitude Course Direction KTS MPH feet Rate Location/Type
10:22AM 41.7500 -87.7500 90° East 194 223 2,400  Level Chicago TRACON
10:23AM 41.7500 -87.6667 90° East 247 284 5,500 3,600 Climbing Chicago TRACON
10:24AM 41.7667 -87.5500 79° East 305 351 9,700 3,480 Climbing Chicago TRACON
10:24AM 41.7592 -87.5164 107° East 290 334 10,800 3,480 Climbing Chicago Center
10:25AM 41.7608 -87.3667 89° East 331 381 14,800 2,880 Climbing Chicago Center
10:27AM 41.7608 -87.2350 90° East 350 403 16,800 2,640 Climbing Chicago Center
10:28AM 41.7611 -87.0958 90° East 370 426 20,300 2,760 Climbing Chicago Center
10:29AM 41.7625 -86.9483 89° East 393 452 22,600 1,980 Climbing Chicago Center
10:30AM 41.7644 -86.7856 89° East 432 497 24,500 1,980 Climbing Chicago Center
10:31AM 41.7667 -86.6019 89° East 460 529 26,800 2,040 Climbing Chicago Center
10:32AM 41.7675 -86.4239 90° East 478 550 28,800 2,040 Climbing Chicago Center
10:33AM 41.7819 -86.2378 84° East 500 575 31,000 1,920 Climbing Chicago Center
10:34AM 41.8144 -86.0567 76° East 500 575 32,800 1,500 Climbing Chicago Center
10:35AM 41.8464 -85.8664 77° East 519 597 34,200 1,020 Climbing Chicago Center
10:36AM 41.8850 -85.6289 78° East 536 617 35,000 840 Climbing Chicago Center
10:37AM 41.9192 -85.4281 77° East 542 624 36,000 1,020 Climbing Chicago Center
10:38AM 41.9478 -85.2631 77° East 540 621 37,000 480 Climbing Cleveland Center
10:39AM 41.9539 -85.0594 88° East 540 621 37,000  Level Cleveland Center
10:40AM 41.9533 -84.8583 90° East 535 616 37,000  Level Cleveland Center
10:41AM 41.9500 -84.6569 91° East 535 616 37,000  Level Cleveland Center
10:42AM 41.9486 -84.4614 90° East 530 610 37,000  Level Cleveland Center
10:43AM 41.9431 -84.2489 92° East 524 603 37,000  Level Cleveland Center
10:44AM 41.9408 -84.0506 91° East 524 603 37,000  Level Cleveland Center
10:45AM 41.9381 -83.8606 91° East 518 596 37,000  Level Cleveland Center
10:46AM 41.9353 -83.6647 91° East 518 596 37,000 -1,380 Level Cleveland Center
10:47AM 41.9336 -83.4861 91° East 518 596 34,300 -1,500 Descending Cleveland Center
10:48AM 41.9322 -83.2906 90° East 523 602 34,000 -180 Descending Cleveland Center
10:49AM 41.9306 -83.0811 91° East 517 595 34,000  Level Cleveland Center
10:50AM 41.9283 -82.8886 91° East 517 595 34,000 -540 Level Cleveland Center
10:51AM 41.9275 -82.7156 90° East 517 595 33,000 -540 Descending Cleveland Center
10:52AM 41.9247 -82.5283 91° East 517 595 33,000 -120 Level Cleveland Center
10:53AM 41.9236 -82.3442 90° East 506 582 32,800 -1,020 Descending Cleveland Center
10:54AM 41.9200 -82.1569 91° East 501 577 31,000 -1,860 Descending Cleveland Center
10:55AM 41.9206 -81.9506 90° East 501 577 29,100 -1,740 Descending Cleveland Center
10:56AM 41.9286 -81.7833 86° East 470 541 27,600 -1,560 Descending Cleveland Center
10:57AM 41.9592 -81.6497 73° East 436 502 26,000 -1,320 Descending Cleveland Center
10:58AM 41.9917 -81.5022 73° East 410 472 25,000 -540 Descending Cleveland Center
10:59AM 42.0283 -81.3575 71° East 405 466 25,000  Level Cleveland Center
11:00AM 42.0647 -81.2014 73° East 413 475 25,000  Level Cleveland Center
11:01AM 42.0986 -81.0561 73° East 413 475 25,000  Level Cleveland Center
11:02AM 42.1347 -80.8911 74° East 413 475 25,000  Level Cleveland Center
11:03AM 42.1683 -80.7456 73° East 413 475 25,000 -60 Level Cleveland Center
11:04AM 42.2039 -80.5972 72° East 418 481 24,900 -600 Descending Cleveland Center
11:05AM 42.2350 -80.4486 74° East 418 481 23,900 -960 Descending Cleveland Center
11:06AM 42.2681 -80.3025 73° East 413 475 23,000 -480 Descending Cleveland Center
11:07AM 42.2989 -80.1622 73° East 402 463 23,000 -540 Level Cleveland Center
11:08AM 42.3297 -80.0158 74° East 396 456 22,000 -1,560 Descending Cleveland Center
11:09AM 42.3622 -79.8778 72° East 396 456 19,900 -2,100 Descending Cleveland Center
11:10AM 42.3925 -79.7342 74° East 391 450 17,800 -1,980 Descending Cleveland Center
11:11AM 42.4186 -79.6072 74° East 372 428 16,000 -1,860 Descending Cleveland Center
11:12AM 42.4572 -79.4883 66° East 354 407 14,100 -1,440 Descending Cleveland Center
11:13AM 42.5250 -79.3972 45° Northeast 341 392 13,200 -960 Descending Cleveland Center
11:14AM 42.5886 -79.3086 46° Northeast 329 379 12,200 -1,320 Descending Cleveland Center
11:15AM 42.6564 -79.2225 43° Northeast 324 373 10,600 -1,320 Descending Cleveland Center
11:16AM 42.7097 -79.1506 45° Northeast 319 367 9,600 -1,260 Descending Cleveland Center
11:17AM 42.7672 -79.0731 45° Northeast 301 346 8,100 -1,500 Descending Cleveland Center
11:18AM 42.8286 -78.9894 45° Northeast 284 327 6,700 -1,320 Descending Cleveland Center
11:19AM 42.8817 -78.9172 45° Northeast 279 321 5,500 -1,260 Descending Cleveland Center
11:20AM 42.9369 -78.8447 44° Northeast 273 314 4,200 -1,140 Descending Cleveland Center
11:20AM 42.9667 -78.8167 35° Northeast 259 298 3,900 -300 Descending Buffalo TRACON
11:21AM 42.9833 -78.7833 56° Northeast 213 245 3,900 -300 Level Buffalo TRACON
11:22AM 43.0167 -78.7333 48° Northeast 165 190 3,500 -840 Descending Buffalo TRACON
11:23AM 43.0000 -78.6667 109° East 130 150 2,000 -960 Descending Buffalo TRACON
11:24AM 42.9667 -78.7000 216° Southwest 131 151 1,200 -840 Descending Buffalo TRACON